Time,TemperatureF,DewpointF,PressureIn,WindDirection,WindDirectionDegrees,WindSpeedMPH,WindSpeedGustMPH,Humidity,HourlyPrecipIn,Conditions,Clouds,dailyrainin,SoftwareType,DateUTC
2013-10-09 00:02:00,57.6,49.0,30.19,SSE,158,2.6,3.5,73,0.00,,,0.00,WUHU216HW,2013-10-09 05:02:00,
2013-10-09 00:07:00,57.4,48.8,30.19,SE,142,2.5,3.5,73,0.00,,,0.00,WUHU216HW,2013-10-09 05:07:00,
2013-10-09 00:12:00,57.2,48.6,30.19,SSE,149,2.2,3.5,73,0.00,,,0.00,WUHU216HW,2013-10-09 05:12:00,
2013-10-09 00:17:00,57.2,48.6,30.19,SSE,147,1.6,2.6,73,0.00,,,0.00,WUHU216HW,2013-10-09 05:17:00,
2013-10-09 00:22:00,57.1,48.4,30.19,SE,135,3.0,3.2,73,0.00,,,0.00,WUHU216HW,2013-10-09 05:22:00,
2013-10-09 00:27:00,57.1,48.4,30.19,South,180,2.4,4.1,73,0.00,,,0.00,WUHU216HW,2013-10-09 05:27:00,
2013-10-09 00:32:00,56.9,48.2,30.19,SE,143,2.7,4.3,73,0.00,,,0.00,WUHU216HW,2013-10-09 05:32:00,
2013-10-09 00:37:00,56.9,48.6,30.19,SE,135,4.6,5.4,74,0.00,,,0.00,WUHU216HW,2013-10-09 05:37:00,
2013-10-09 00:42:00,56.9,48.6,30.19,SSE,158,5.2,5.4,74,0.00,,,0.00,WUHU216HW,2013-10-09 05:42:00,
2013-10-09 00:47:00,56.7,48.4,30.19,SE,135,3.2,5.2,74,0.00,,,0.00,WUHU216HW,2013-10-09 05:47:00,
2013-10-09 00:52:00,56.7,48.4,30.19,SE,135,3.2,5.6,74,0.00,,,0.00,WUHU216HW,2013-10-09 05:52:00,
2013-10-09 00:57:00,56.7,48.4,30.19,SSE,151,2.8,5.6,74,0.00,,,0.00,WUHU216HW,2013-10-09 05:57:00,
2013-10-09 01:02:00,56.5,48.2,30.19,SSE,157,2.6,4.1,74,0.00,,,0.00,WUHU216HW,2013-10-09 06:02:00,
2013-10-09 01:07:00,56.5,48.0,30.19,SSE,158,3.0,4.6,73,0.00,,,0.00,WUHU216HW,2013-10-09 06:07:00,
2013-10-09 01:12:00,56.5,48.2,30.19,SE,135,2.6,5.6,74,0.00,,,0.00,WUHU216HW,2013-10-09 06:12:00,
2013-10-09 01:17:00,56.5,48.0,30.19,SSE,158,3.0,5.6,73,0.00,,,0.00,WUHU216HW,2013-10-09 06:17:00,
2013-10-09 01:22:00,56.3,47.8,30.19,SSE,158,4.1,4.3,73,0.00,,,0.00,WUHU216HW,2013-10-09 06:22:00,
2013-10-09 01:27:00,56.2,47.6,30.19,SSE,150,2.7,4.3,73,0.00,,,0.00,WUHU216HW,2013-10-09 06:27:00,
2013-10-09 01:32:00,56.2,47.6,30.20,SE,144,2.5,4.3,73,0.00,,,0.00,WUHU216HW,2013-10-09 06:32:00,
2013-10-09 01:37:00,56.2,48.0,30.19,SSE,158,3.0,3.7,74,0.00,,,0.00,WUHU216HW,2013-10-09 06:37:00,
2013-10-09 01:42:00,56.0,47.4,30.19,SE,135,3.0,4.1,73,0.00,,,0.00,WUHU216HW,2013-10-09 06:42:00,
2013-10-09 01:47:00,56.0,47.4,30.20,SE,135,3.2,4.1,73,0.00,,,0.00,WUHU216HW,2013-10-09 06:47:00,
2013-10-09 01:52:00,55.8,47.6,30.20,SE,135,3.5,4.1,74,0.00,,,0.00,WUHU216HW,2013-10-09 06:52:00,
2013-10-09 01:57:00,55.8,47.6,30.20,SSE,158,3.5,4.6,74,0.00,,,0.00,WUHU216HW,2013-10-09 06:57:00,
2013-10-09 02:02:00,55.6,47.4,30.20,SE,139,2.0,4.6,74,0.00,,,0.00,WUHU216HW,2013-10-09 07:02:00,
2013-10-09 02:07:00,55.4,47.3,30.20,SSE,152,2.5,3.5,74,0.00,,,0.00,WUHU216HW,2013-10-09 07:07:00,
2013-10-09 02:12:00,55.4,47.3,30.20,SSE,152,2.4,3.5,74,0.00,,,0.00,WUHU216HW,2013-10-09 07:12:00,
2013-10-09 02:17:00,55.3,47.1,30.20,SSE,158,1.1,3.5,74,0.00,,,0.00,WUHU216HW,2013-10-09 07:17:00,
2013-10-09 02:22:00,55.1,46.9,30.20,SSE,158,2.2,2.4,74,0.00,,,0.00,WUHU216HW,2013-10-09 07:22:00,
2013-10-09 02:27:00,54.9,46.7,30.20,SSE,158,2.2,2.4,74,0.00,,,0.00,WUHU216HW,2013-10-09 07:27:00,
2013-10-09 02:32:00,54.9,46.7,30.20,SSE,158,0.6,2.2,74,0.00,,,0.00,WUHU216HW,2013-10-09 07:32:00,
2013-10-09 02:37:00,54.7,46.6,30.20,SE,135,1.2,2.2,74,0.00,,,0.00,WUHU216HW,2013-10-09 07:37:00,
2013-10-09 02:42:00,54.5,46.5,30.20,SSE,158,1.6,2.2,74,0.00,,,0.00,WUHU216HW,2013-10-09 07:42:00,
2013-10-09 02:47:00,54.5,46.5,30.20,SSE,158,1.6,2.2,74,0.00,,,0.00,WUHU216HW,2013-10-09 07:47:00,
2013-10-09 02:52:00,54.4,46.3,30.20,SSE,158,1.3,2.2,74,0.00,,,0.00,WUHU216HW,2013-10-09 07:52:00,
2013-10-09 02:57:00,54.4,46.6,30.20,SE,135,2.2,2.2,75,0.00,,,0.00,WUHU216HW,2013-10-09 07:57:00,
2013-10-09 03:02:00,54.2,46.5,30.20,SSE,158,1.3,2.2,75,0.00,,,0.00,WUHU216HW,2013-10-09 08:02:00,
2013-10-09 03:07:00,54.0,46.3,30.20,SSE,158,1.9,2.2,75,0.00,,,0.00,WUHU216HW,2013-10-09 08:07:00,
2013-10-09 03:12:00,54.0,46.3,30.20,SSE,158,1.1,1.9,75,0.00,,,0.00,WUHU216HW,2013-10-09 08:12:00,
2013-10-09 03:17:00,53.6,45.9,30.20,SSE,158,0.5,1.9,75,0.00,,,0.00,WUHU216HW,2013-10-09 08:17:00,
2013-10-09 03:22:00,53.3,45.5,30.20,SSE,158,0.0,1.1,75,0.00,,,0.00,WUHU216HW,2013-10-09 08:22:00,
2013-10-09 03:27:00,52.9,45.2,30.20,SSE,158,0.2,0.5,75,0.00,,,0.00,WUHU216HW,2013-10-09 08:27:00,
2013-10-09 03:32:00,52.6,44.9,30.20,SSE,158,1.1,1.1,75,0.00,,,0.00,WUHU216HW,2013-10-09 08:32:00,
2013-10-09 03:37:00,52.2,44.9,30.20,SSE,158,0.0,1.3,76,0.00,,,0.00,WUHU216HW,2013-10-09 08:37:00,
2013-10-09 03:42:00,51.8,44.6,30.20,SSE,158,0.0,1.3,76,0.00,,,0.00,WUHU216HW,2013-10-09 08:42:00,
2013-10-09 03:47:00,51.5,44.6,30.20,SSE,158,0.2,0.5,77,0.00,,,0.00,WUHU216HW,2013-10-09 08:47:00,
2013-10-09 03:52:00,51.3,44.4,30.21,SSE,158,0.5,1.3,77,0.00,,,0.00,WUHU216HW,2013-10-09 08:52:00,
2013-10-09 03:57:00,50.9,44.3,30.21,SSE,158,0.4,1.3,78,0.00,,,0.00,WUHU216HW,2013-10-09 08:57:00,
2013-10-09 04:02:00,50.8,44.1,30.21,SSE,158,0.0,1.3,78,0.00,,,0.00,WUHU216HW,2013-10-09 09:02:00,
2013-10-09 04:07:00,50.8,44.1,30.21,SSE,158,0.0,0.0,78,0.00,,,0.00,WUHU216HW,2013-10-09 09:07:00,
2013-10-09 04:12:00,50.6,44.3,30.22,SSE,158,0.0,0.0,79,0.00,,,0.00,WUHU216HW,2013-10-09 09:12:00,
2013-10-09 04:17:00,50.4,44.1,30.22,SSE,158,0.9,1.3,79,0.00,,,0.00,WUHU216HW,2013-10-09 09:17:00,
2013-10-09 04:22:00,50.2,43.9,30.22,SSE,158,0.5,1.3,79,0.00,,,0.00,WUHU216HW,2013-10-09 09:22:00,
2013-10-09 04:27:00,50.0,44.1,30.22,SSE,158,0.2,1.1,80,0.00,,,0.00,WUHU216HW,2013-10-09 09:27:00,
2013-10-09 04:32:00,49.9,43.9,30.23,SSE,158,0.0,0.2,80,0.00,,,0.00,WUHU216HW,2013-10-09 09:32:00,
2013-10-09 04:37:00,49.7,43.7,30.23,SSE,158,0.0,0.0,80,0.00,,,0.00,WUHU216HW,2013-10-09 09:37:00,
2013-10-09 04:42:00,49.5,43.6,30.23,SSE,158,0.0,0.0,80,0.00,,,0.00,WUHU216HW,2013-10-09 09:42:00,
2013-10-09 04:47:00,49.3,43.4,30.23,SSE,158,0.0,0.0,80,0.00,,,0.00,WUHU216HW,2013-10-09 09:47:00,
2013-10-09 04:52:00,49.3,43.7,30.23,SSE,158,0.0,0.0,81,0.00,,,0.00,WUHU216HW,2013-10-09 09:52:00,
2013-10-09 04:57:00,49.1,43.5,30.23,SSE,158,0.2,0.2,81,0.00,,,0.00,WUHU216HW,2013-10-09 09:57:00,
2013-10-09 05:02:00,48.8,43.2,30.23,SSE,158,0.5,0.5,81,0.00,,,0.00,WUHU216HW,2013-10-09 10:02:00,
2013-10-09 05:07:00,48.6,43.3,30.23,SSE,158,0.0,0.5,82,0.00,,,0.00,WUHU216HW,2013-10-09 10:07:00,
2013-10-09 05:12:00,48.4,43.1,30.23,SSE,158,0.0,0.5,82,0.00,,,0.00,WUHU216HW,2013-10-09 10:12:00,
2013-10-09 05:17:00,48.4,43.1,30.23,SSE,158,0.0,0.0,82,0.00,,,0.00,WUHU216HW,2013-10-09 10:17:00,
2013-10-09 05:22:00,48.2,42.7,30.23,SSE,158,0.0,0.0,81,0.00,,,0.00,WUHU216HW,2013-10-09 10:22:00,
2013-10-09 05:27:00,48.2,42.7,30.23,SSE,158,0.0,0.0,81,0.00,,,0.00,WUHU216HW,2013-10-09 10:27:00,
2013-10-09 05:32:00,48.2,42.7,30.24,SSE,158,0.0,0.0,81,0.00,,,0.00,WUHU216HW,2013-10-09 10:32:00,
2013-10-09 05:37:00,48.1,42.5,30.24,SSE,158,0.0,0.0,81,0.00,,,0.00,WUHU216HW,2013-10-09 10:37:00,
2013-10-09 05:42:00,47.9,42.7,30.24,SSE,158,0.5,0.5,82,0.00,,,0.00,WUHU216HW,2013-10-09 10:42:00,
2013-10-09 05:47:00,47.9,42.7,30.24,SSE,158,0.5,0.8,82,0.00,,,0.00,WUHU216HW,2013-10-09 10:47:00,
2013-10-09 05:52:00,47.7,42.5,30.24,SSE,158,0.0,0.8,82,0.00,,,0.00,WUHU216HW,2013-10-09 10:52:00,
2013-10-09 05:57:00,47.5,42.3,30.24,SSE,158,0.5,0.5,82,0.00,,,0.00,WUHU216HW,2013-10-09 10:57:00,
2013-10-09 06:02:00,47.3,42.1,30.24,SSE,158,0.6,0.8,82,0.00,,,0.00,WUHU216HW,2013-10-09 11:02:00,
2013-10-09 06:07:00,47.3,42.5,30.24,SE,140,1.6,2.4,83,0.00,,,0.00,WUHU216HW,2013-10-09 11:07:00,
2013-10-09 06:12:00,47.2,42.3,30.24,SE,135,1.3,2.4,83,0.00,,,0.00,WUHU216HW,2013-10-09 11:12:00,
2013-10-09 06:17:00,47.2,42.3,30.24,SSE,158,1.3,1.3,83,0.00,,,0.00,WUHU216HW,2013-10-09 11:17:00,
2013-10-09 06:22:00,47.2,42.3,30.24,SSE,158,1.1,1.6,83,0.00,,,0.00,WUHU216HW,2013-10-09 11:22:00,
2013-10-09 06:27:00,47.3,42.5,30.24,SSE,158,1.6,2.2,83,0.00,,,0.00,WUHU216HW,2013-10-09 11:27:00,
2013-10-09 06:32:00,47.3,42.8,30.24,SSE,158,1.5,2.2,84,0.00,,,0.00,WUHU216HW,2013-10-09 11:32:00,
2013-10-09 06:37:00,47.3,42.8,30.24,SSE,158,0.7,2.2,84,0.00,,,0.00,WUHU216HW,2013-10-09 11:37:00,
2013-10-09 06:42:00,47.3,42.8,30.24,SSE,158,0.0,1.9,84,0.00,,,0.00,WUHU216HW,2013-10-09 11:42:00,
2013-10-09 06:47:00,47.3,42.8,30.24,SSE,158,0.0,1.3,84,0.00,,,0.00,WUHU216HW,2013-10-09 11:47:00,
2013-10-09 06:52:00,47.3,42.8,30.24,SSE,158,0.5,1.3,84,0.00,,,0.00,WUHU216HW,2013-10-09 11:52:00,
2013-10-09 06:57:00,47.3,42.8,30.25,SSE,158,0.0,0.5,84,0.00,,,0.00,WUHU216HW,2013-10-09 11:57:00,
2013-10-09 07:02:00,47.3,42.8,30.25,SSE,158,1.1,1.1,84,0.00,,,0.00,WUHU216HW,2013-10-09 12:02:00,
2013-10-09 07:03:00,47.3,42.8,30.25,SSE,158,0.8,1.1,84,0.00,,,0.00,WUHU216HW,2013-10-09 12:03:00,
2013-10-09 07:08:00,47.2,42.6,30.25,SSE,158,1.3,1.6,84,0.00,,,0.00,WUHU216HW,2013-10-09 12:08:00,
2013-10-09 07:13:00,47.2,42.6,30.25,SSE,158,1.4,2.2,84,0.00,,,0.00,WUHU216HW,2013-10-09 12:13:00,
2013-10-09 07:18:00,47.2,42.6,30.25,SSE,158,1.1,2.2,84,0.00,,,0.00,WUHU216HW,2013-10-09 12:18:00,
2013-10-09 07:23:00,47.3,42.8,30.25,SSE,158,1.3,1.6,84,0.00,,,0.00,WUHU216HW,2013-10-09 12:23:00,
2013-10-09 07:28:00,47.5,43.2,30.25,SSE,158,2.2,2.2,85,0.00,,,0.00,WUHU216HW,2013-10-09 12:28:00,
2013-10-09 07:33:00,47.7,43.4,30.25,SSE,158,2.2,3.0,85,0.00,,,0.00,WUHU216HW,2013-10-09 12:33:00,
2013-10-09 07:38:00,47.9,43.6,30.25,SSE,157,1.7,3.0,85,0.00,,,0.00,WUHU216HW,2013-10-09 12:38:00,
2013-10-09 07:43:00,48.2,43.9,30.25,SSE,158,1.6,2.2,85,0.00,,,0.00,WUHU216HW,2013-10-09 12:43:00,
2013-10-09 07:48:00,48.6,44.3,30.25,SSE,158,1.5,2.2,85,0.00,,,0.00,WUHU216HW,2013-10-09 12:48:00,
2013-10-09 07:53:00,49.1,44.8,30.25,SSE,158,1.3,2.2,85,0.00,,,0.00,WUHU216HW,2013-10-09 12:53:00,
2013-10-09 07:58:00,49.5,45.1,30.25,SE,137,1.6,2.2,85,0.00,,,0.00,WUHU216HW,2013-10-09 12:58:00,
2013-10-09 08:03:00,49.9,45.8,30.25,SSE,158,1.5,2.2,86,0.00,,,0.00,WUHU216HW,2013-10-09 13:03:00,
2013-10-09 08:08:00,50.2,45.8,30.26,SE,136,1.9,2.6,85,0.00,,,0.00,WUHU216HW,2013-10-09 13:08:00,
2013-10-09 08:13:00,50.8,46.1,30.26,SE,135,1.3,2.6,84,0.00,,,0.00,WUHU216HW,2013-10-09 13:13:00,
2013-10-09 08:18:00,51.3,46.6,30.26,SE,135,2.2,2.6,84,0.00,,,0.00,WUHU216HW,2013-10-09 13:18:00,
2013-10-09 08:23:00,51.8,47.2,30.26,SE,137,1.6,3.0,84,0.00,,,0.00,WUHU216HW,2013-10-09 13:23:00,
2013-10-09 08:28:00,52.2,47.2,30.26,SE,135,1.1,3.0,83,0.00,,,0.00,WUHU216HW,2013-10-09 13:28:00,
2013-10-09 08:33:00,52.7,47.7,30.26,SE,144,2.3,3.0,83,0.00,,,0.00,WUHU216HW,2013-10-09 13:33:00,
2013-10-09 08:38:00,52.9,47.6,30.26,SSE,158,1.6,3.0,82,0.00,,,0.00,WUHU216HW,2013-10-09 13:38:00,
2013-10-09 08:43:00,53.3,48.0,30.26,SSE,158,2.4,3.5,82,0.00,,,0.00,WUHU216HW,2013-10-09 13:43:00,
2013-10-09 08:48:00,53.6,48.0,30.26,SSE,154,2.2,3.5,81,0.00,,,0.00,WUHU216HW,2013-10-09 13:48:00,
2013-10-09 08:53:00,54.0,48.3,30.26,South,180,2.2,3.5,81,0.00,,,0.00,WUHU216HW,2013-10-09 13:53:00,
2013-10-09 08:58:00,54.5,48.9,30.26,SSE,158,2.2,3.2,81,0.00,,,0.00,WUHU216HW,2013-10-09 13:58:00,
2013-10-09 09:03:00,55.1,49.3,30.26,South,173,1.4,2.4,81,0.00,,,0.00,WUHU216HW,2013-10-09 14:03:00,
2013-10-09 09:08:00,55.4,49.3,30.26,SE,135,2.4,4.6,80,0.00,,,0.00,WUHU216HW,2013-10-09 14:08:00,
2013-10-09 09:13:00,55.8,50.1,30.26,SE,135,3.2,4.6,81,0.00,,,0.00,WUHU216HW,2013-10-09 14:13:00,
2013-10-09 09:18:00,56.2,50.0,30.26,SSE,158,2.6,3.7,80,0.00,,,0.00,WUHU216HW,2013-10-09 14:18:00,
2013-10-09 09:23:00,56.9,50.8,30.26,SSE,151,3.5,5.2,80,0.00,,,0.00,WUHU216HW,2013-10-09 14:23:00,
2013-10-09 09:28:00,57.6,51.1,30.26,SSE,168,1.9,5.2,79,0.00,,,0.00,WUHU216HW,2013-10-09 14:28:00,
2013-10-09 09:33:00,58.3,51.8,30.26,SSE,167,1.4,3.7,79,0.00,,,0.00,WUHU216HW,2013-10-09 14:33:00,
2013-10-09 09:38:00,59.4,52.9,30.27,SSE,158,3.0,3.7,79,0.00,,,0.00,WUHU216HW,2013-10-09 14:38:00,
2013-10-09 09:43:00,60.1,52.9,30.26,SE,135,3.0,4.8,77,0.00,,,0.00,WUHU216HW,2013-10-09 14:43:00,
2013-10-09 09:48:00,61.0,53.5,30.26,South,180,2.6,4.8,76,0.00,,,0.00,WUHU216HW,2013-10-09 14:48:00,
2013-10-09 09:53:00,61.9,53.9,30.26,SSE,148,4.2,5.4,75,0.00,,,0.00,WUHU216HW,2013-10-09 14:53:00,
2013-10-09 09:58:00,62.6,54.2,30.26,SSE,147,2.0,5.4,74,0.00,,,0.00,WUHU216HW,2013-10-09 14:58:00,
2013-10-09 10:03:00,63.4,55.3,30.26,SE,135,3.2,3.2,75,0.00,,,0.00,WUHU216HW,2013-10-09 15:03:00,
2013-10-09 10:08:00,64.1,55.6,30.26,South,180,2.6,3.2,74,0.00,,,0.00,WUHU216HW,2013-10-09 15:08:00,
2013-10-09 10:13:00,64.8,56.0,30.26,South,180,1.4,3.2,73,0.00,,,0.00,WUHU216HW,2013-10-09 15:13:00,
2013-10-09 10:18:00,65.5,55.9,30.26,SSE,157,1.3,2.6,71,0.00,,,0.00,WUHU216HW,2013-10-09 15:18:00,
2013-10-09 10:23:00,66.1,56.3,30.26,SE,135,3.5,3.5,71,0.00,,,0.00,WUHU216HW,2013-10-09 15:23:00,
2013-10-09 10:28:00,66.6,56.5,30.26,SSE,158,3.5,4.8,70,0.00,,,0.00,WUHU216HW,2013-10-09 15:28:00,
2013-10-09 10:33:00,66.8,54.6,30.26,ESE,113,1.3,4.8,65,0.00,,,0.00,WUHU216HW,2013-10-09 15:33:00,
2013-10-09 10:38:00,67.0,55.2,30.26,SSE,158,1.3,2.4,66,0.00,,,0.00,WUHU216HW,2013-10-09 15:38:00,
2013-10-09 10:43:00,67.3,55.5,30.25,South,177,1.3,3.7,66,0.00,,,0.00,WUHU216HW,2013-10-09 15:43:00,
2013-10-09 10:48:00,67.9,56.1,30.25,South,180,1.9,3.7,66,0.00,,,0.00,WUHU216HW,2013-10-09 15:48:00,
2013-10-09 10:53:00,68.6,56.4,30.25,SSE,158,2.6,2.6,65,0.00,,,0.00,WUHU216HW,2013-10-09 15:53:00,
2013-10-09 10:58:00,68.9,56.3,30.25,SSE,151,3.1,4.8,64,0.00,,,0.00,WUHU216HW,2013-10-09 15:58:00,
2013-10-09 11:03:00,69.3,56.2,30.25,SSE,158,2.2,4.8,63,0.00,,,0.00,WUHU216HW,2013-10-09 16:03:00,
2013-10-09 11:08:00,69.5,55.9,30.25,South,180,0.5,3.5,62,0.00,,,0.00,WUHU216HW,2013-10-09 16:08:00,
2013-10-09 11:13:00,69.7,55.7,30.25,SE,135,2.6,3.2,61,0.00,,,0.00,WUHU216HW,2013-10-09 16:13:00,
2013-10-09 11:18:00,69.7,55.3,30.25,ESE,113,0.8,2.6,60,0.00,,,0.00,WUHU216HW,2013-10-09 16:18:00,
2013-10-09 11:23:00,69.8,55.4,30.25,SSE,156,1.5,4.1,60,0.00,,,0.00,WUHU216HW,2013-10-09 16:23:00,
2013-10-09 11:28:00,69.8,52.9,30.25,ENE,68,1.1,4.1,55,0.00,,,0.00,WUHU216HW,2013-10-09 16:28:00,
2013-10-09 11:33:00,69.8,54.9,30.25,SE,141,2.7,4.1,59,0.00,,,0.00,WUHU216HW,2013-10-09 16:33:00,
2013-10-09 11:38:00,70.2,55.3,30.25,SSE,167,2.6,4.1,59,0.00,,,0.00,WUHU216HW,2013-10-09 16:38:00,
2013-10-09 11:43:00,70.4,54.9,30.24,South,180,2.2,3.2,58,0.00,,,0.00,WUHU216HW,2013-10-09 16:43:00,
2013-10-09 11:48:00,70.7,55.3,30.25,South,180,0.6,3.2,58,0.00,,,0.00,WUHU216HW,2013-10-09 16:48:00,
2013-10-09 11:53:00,70.9,54.4,30.25,SE,129,1.1,3.2,56,0.00,,,0.00,WUHU216HW,2013-10-09 16:53:00,
2013-10-09 11:58:00,70.9,55.5,30.24,SSE,158,1.9,3.2,58,0.00,,,0.00,WUHU216HW,2013-10-09 16:58:00,
2013-10-09 12:03:00,71.3,55.3,30.24,SSE,168,2.9,4.3,57,0.00,,,0.00,WUHU216HW,2013-10-09 17:03:00,
2013-10-09 12:08:00,71.5,54.4,30.24,SE,135,1.1,4.3,55,0.00,,,0.00,WUHU216HW,2013-10-09 17:08:00,
2013-10-09 12:13:00,71.3,54.7,30.24,South,170,2.4,4.8,56,0.00,,,0.00,WUHU216HW,2013-10-09 17:13:00,
2013-10-09 12:18:00,71.3,54.7,30.23,SSW,203,4.1,4.8,56,0.00,,,0.00,WUHU216HW,2013-10-09 17:18:00,
2013-10-09 12:23:00,71.3,52.2,30.23,East,96,1.0,4.8,51,0.00,,,0.00,WUHU216HW,2013-10-09 17:23:00,
2013-10-09 12:28:00,71.1,53.0,30.23,East,90,3.0,4.6,53,0.00,,,0.00,WUHU216HW,2013-10-09 17:28:00,
2013-10-09 12:33:00,71.1,53.6,30.23,SSE,158,4.8,4.8,54,0.00,,,0.00,WUHU216HW,2013-10-09 17:33:00,
2013-10-09 12:38:00,71.5,54.4,30.23,SSE,158,2.6,5.4,55,0.00,,,0.00,WUHU216HW,2013-10-09 17:38:00,
2013-10-09 12:43:00,71.3,52.2,30.22,East,90,2.2,5.4,51,0.00,,,0.00,WUHU216HW,2013-10-09 17:43:00,
2013-10-09 12:48:00,70.9,49.0,30.22,ENE,68,3.0,3.7,46,0.00,,,0.00,WUHU216HW,2013-10-09 17:48:00,
2013-10-09 12:53:00,70.7,52.2,30.22,SSE,164,1.7,4.1,52,0.00,,,0.00,WUHU216HW,2013-10-09 17:53:00,
2013-10-09 12:58:00,70.9,52.4,30.21,NE,45,3.5,4.1,52,0.00,,,0.00,WUHU216HW,2013-10-09 17:58:00,
2013-10-09 13:03:00,70.7,51.8,30.21,North,8,1.1,4.1,51,0.00,,,0.00,WUHU216HW,2013-10-09 18:03:00,
2013-10-09 13:08:00,70.9,52.4,30.21,ENE,61,1.7,3.7,52,0.00,,,0.00,WUHU216HW,2013-10-09 18:08:00,
2013-10-09 13:13:00,70.9,51.8,30.21,South,180,2.2,3.2,51,0.00,,,0.00,WUHU216HW,2013-10-09 18:13:00,
2013-10-09 13:18:00,71.3,52.2,30.20,SSE,155,1.4,3.2,51,0.00,,,0.00,WUHU216HW,2013-10-09 18:18:00,
2013-10-09 13:23:00,71.6,52.6,30.20,NE,45,2.4,3.0,51,0.00,,,0.00,WUHU216HW,2013-10-09 18:23:00,
2013-10-09 13:28:00,71.1,50.3,30.20,NE,51,1.6,3.2,48,0.00,,,0.00,WUHU216HW,2013-10-09 18:28:00,
2013-10-09 13:33:00,71.3,51.7,30.20,NE,45,1.9,3.2,50,0.00,,,0.00,WUHU216HW,2013-10-09 18:33:00,
2013-10-09 13:38:00,71.1,50.9,30.20,SSE,159,2.8,4.3,49,0.00,,,0.00,WUHU216HW,2013-10-09 18:38:00,
2013-10-09 13:43:00,70.9,48.4,30.20,NE,45,3.5,4.6,45,0.00,,,0.00,WUHU216HW,2013-10-09 18:43:00,
2013-10-09 13:48:00,70.6,49.9,30.20,NE,34,2.0,4.6,48,0.00,,,0.00,WUHU216HW,2013-10-09 18:48:00,
2013-10-09 13:53:00,70.9,50.8,30.20,North,0,1.3,3.0,49,0.00,,,0.00,WUHU216HW,2013-10-09 18:53:00,
2013-10-09 13:58:00,71.3,51.7,30.20,ESE,113,1.6,2.4,50,0.00,,,0.00,WUHU216HW,2013-10-09 18:58:00,
2013-10-09 14:03:00,71.6,51.4,30.20,East,84,1.5,3.5,49,0.00,,,0.00,WUHU216HW,2013-10-09 19:03:00,
2013-10-09 14:08:00,71.5,48.3,30.19,ENE,70,2.6,4.6,44,0.00,,,0.00,WUHU216HW,2013-10-09 19:08:00,
2013-10-09 14:13:00,71.3,50.0,30.19,SSE,158,8.6,8.6,47,0.00,,,0.00,WUHU216HW,2013-10-09 19:13:00,
2013-10-09 14:18:00,71.5,51.3,30.19,SSE,160,2.4,8.6,49,0.00,,,0.00,WUHU216HW,2013-10-09 19:18:00,
2013-10-09 14:23:00,71.8,51.0,30.19,SSE,148,2.0,8.6,48,0.00,,,0.00,WUHU216HW,2013-10-09 19:23:00,
2013-10-09 14:28:00,71.6,49.7,30.19,East,90,2.2,3.7,46,0.00,,,0.00,WUHU216HW,2013-10-09 19:28:00,
2013-10-09 14:33:00,71.6,49.7,30.19,ENE,64,1.4,3.2,46,0.00,,,0.00,WUHU216HW,2013-10-09 19:33:00,
2013-10-09 14:38:00,71.6,50.2,30.19,ENE,76,1.4,3.2,47,0.00,,,0.00,WUHU216HW,2013-10-09 19:38:00,
2013-10-09 14:43:00,71.8,50.4,30.19,NNE,23,2.9,3.7,47,0.00,,,0.00,WUHU216HW,2013-10-09 19:43:00,
2013-10-09 14:48:00,71.6,50.9,30.19,North,0,4.1,4.1,48,0.00,,,0.00,WUHU216HW,2013-10-09 19:48:00,
2013-10-09 14:53:00,71.6,52.0,30.18,North,0,1.4,4.1,50,0.00,,,0.00,WUHU216HW,2013-10-09 19:53:00,
2013-10-09 14:58:00,71.6,51.4,30.18,NNE,23,2.4,4.6,49,0.00,,,0.00,WUHU216HW,2013-10-09 19:58:00,
2013-10-09 15:03:00,71.1,52.6,30.18,North,357,2.7,5.2,52,0.00,,,0.00,WUHU216HW,2013-10-09 20:03:00,
2013-10-09 15:08:00,70.9,52.9,30.18,NNE,31,1.8,5.2,53,0.00,,,0.00,WUHU216HW,2013-10-09 20:08:00,
2013-10-09 15:13:00,70.7,53.2,30.18,WNW,302,0.6,5.6,54,0.00,,,0.00,WUHU216HW,2013-10-09 20:13:00,
2013-10-09 15:18:00,70.9,53.9,30.18,North,0,4.3,5.6,55,0.00,,,0.00,WUHU216HW,2013-10-09 20:18:00,
2013-10-09 15:23:00,70.9,53.9,30.18,North,0,3.0,5.4,55,0.00,,,0.00,WUHU216HW,2013-10-09 20:23:00,
2013-10-09 15:28:00,70.7,54.3,30.18,North,10,2.7,5.4,56,0.00,,,0.00,WUHU216HW,2013-10-09 20:28:00,
2013-10-09 15:33:00,70.6,54.1,30.18,North,0,4.1,5.4,56,0.00,,,0.00,WUHU216HW,2013-10-09 20:33:00,
2013-10-09 15:38:00,70.4,53.4,30.18,NNE,23,3.7,5.4,55,0.00,,,0.00,WUHU216HW,2013-10-09 20:38:00,
2013-10-09 15:43:00,70.2,53.7,30.18,North,10,3.4,5.6,56,0.00,,,0.00,WUHU216HW,2013-10-09 20:43:00,
2013-10-09 15:48:00,70.2,53.7,30.17,North,5,2.6,5.6,56,0.00,,,0.00,WUHU216HW,2013-10-09 20:48:00,
2013-10-09 15:53:00,70.2,53.7,30.17,North,0,1.9,5.6,56,0.00,,,0.00,WUHU216HW,2013-10-09 20:53:00,
2013-10-09 15:58:00,70.0,54.1,30.17,North,350,1.2,5.6,57,0.00,,,0.00,WUHU216HW,2013-10-09 20:58:00,
2013-10-09 16:03:00,69.8,53.9,30.17,NE,45,1.1,5.6,57,0.00,,,0.00,WUHU216HW,2013-10-09 21:03:00,
2013-10-09 16:08:00,69.8,54.5,30.17,NW,316,0.5,1.9,58,0.00,,,0.00,WUHU216HW,2013-10-09 21:08:00,
2013-10-09 16:13:00,69.8,54.5,30.17,WNW,293,1.0,2.2,58,0.00,,,0.00,WUHU216HW,2013-10-09 21:13:00,
2013-10-09 16:18:00,69.8,53.9,30.17,NW,315,1.6,3.2,57,0.00,,,0.00,WUHU216HW,2013-10-09 21:18:00,
2013-10-09 16:23:00,69.8,54.5,30.17,North,0,2.2,3.2,58,0.00,,,0.00,WUHU216HW,2013-10-09 21:23:00,
2013-10-09 16:28:00,70.0,54.1,30.17,NNE,23,0.7,3.0,57,0.00,,,0.00,WUHU216HW,2013-10-09 21:28:00,
2013-10-09 16:33:00,69.8,53.9,30.17,North,0,3.0,3.2,57,0.00,,,0.00,WUHU216HW,2013-10-09 21:33:00,
2013-10-09 16:38:00,69.8,53.9,30.17,NE,45,2.2,3.2,57,0.00,,,0.00,WUHU216HW,2013-10-09 21:38:00,
2013-10-09 16:43:00,69.7,54.3,30.17,North,6,0.7,4.3,58,0.00,,,0.00,WUHU216HW,2013-10-09 21:43:00,
2013-10-09 16:48:00,69.8,54.5,30.17,North,0,1.3,4.3,58,0.00,,,0.00,WUHU216HW,2013-10-09 21:48:00,
2013-10-09 16:53:00,69.8,54.5,30.17,North,5,2.5,4.3,58,0.00,,,0.00,WUHU216HW,2013-10-09 21:53:00,
2013-10-09 16:58:00,69.7,54.3,30.16,NNE,23,2.8,5.2,58,0.00,,,0.00,WUHU216HW,2013-10-09 21:58:00,
2013-10-09 17:03:00,69.5,54.5,30.16,NNE,23,3.0,5.2,59,0.00,,,0.00,WUHU216HW,2013-10-09 22:03:00,
2013-10-09 17:08:00,69.3,54.4,30.16,NNE,18,1.5,3.0,59,0.00,,,0.00,WUHU216HW,2013-10-09 22:08:00,
2013-10-09 17:13:00,68.9,54.5,30.16,NNE,23,1.3,3.0,60,0.00,,,0.00,WUHU216HW,2013-10-09 22:13:00,
2013-10-09 17:18:00,68.8,54.4,30.16,NNE,23,1.3,2.6,60,0.00,,,0.00,WUHU216HW,2013-10-09 22:18:00,
2013-10-09 17:23:00,68.0,54.1,30.16,NNE,17,2.5,4.6,61,0.00,,,0.00,WUHU216HW,2013-10-09 22:23:00,
2013-10-09 17:28:00,67.9,54.4,30.16,NNE,13,2.9,4.6,62,0.00,,,0.00,WUHU216HW,2013-10-09 22:28:00,
2013-10-09 17:33:00,67.3,53.8,30.16,North,0,2.2,4.6,62,0.00,,,0.00,WUHU216HW,2013-10-09 22:33:00,
2013-10-09 17:38:00,67.0,53.9,30.16,NNE,12,2.3,4.6,63,0.00,,,0.00,WUHU216HW,2013-10-09 22:38:00,
2013-10-09 17:43:00,66.8,54.2,30.16,NNE,23,2.2,3.5,64,0.00,,,0.00,WUHU216HW,2013-10-09 22:43:00,
2013-10-09 17:48:00,66.4,53.8,30.16,North,0,2.2,3.2,64,0.00,,,0.00,WUHU216HW,2013-10-09 22:48:00,
2013-10-09 17:53:00,66.1,53.9,30.16,North,0,0.9,2.2,65,0.00,,,0.00,WUHU216HW,2013-10-09 22:53:00,
2013-10-09 17:58:00,65.7,53.6,30.16,North,0,1.9,2.2,65,0.00,,,0.00,WUHU216HW,2013-10-09 22:58:00,
2013-10-09 18:03:00,65.3,53.6,30.16,North,0,0.2,1.9,66,0.00,,,0.00,WUHU216HW,2013-10-09 23:03:00,
2013-10-09 18:08:00,65.2,53.5,30.16,NE,45,0.2,1.9,66,0.00,,,0.00,WUHU216HW,2013-10-09 23:08:00,
2013-10-09 18:13:00,64.8,53.6,30.16,NE,45,0.2,0.5,67,0.00,,,0.00,WUHU216HW,2013-10-09 23:13:00,
2013-10-09 18:18:00,64.4,53.3,30.16,NE,45,0.0,0.2,67,0.00,,,0.00,WUHU216HW,2013-10-09 23:18:00,
2013-10-09 18:23:00,64.1,53.3,30.16,ENE,68,0.0,0.2,68,0.00,,,0.00,WUHU216HW,2013-10-09 23:23:00,
2013-10-09 18:28:00,63.7,53.4,30.16,ENE,68,0.0,0.5,69,0.00,,,0.00,WUHU216HW,2013-10-09 23:28:00,
2013-10-09 18:33:00,63.4,53.0,30.16,ENE,68,0.0,0.5,69,0.00,,,0.00,WUHU216HW,2013-10-09 23:33:00,
2013-10-09 18:38:00,63.0,53.1,30.16,ENE,68,0.0,0.0,70,0.00,,,0.00,WUHU216HW,2013-10-09 23:38:00,
2013-10-09 18:43:00,62.6,52.7,30.16,ENE,68,0.0,0.0,70,0.00,,,0.00,WUHU216HW,2013-10-09 23:43:00,
2013-10-09 18:48:00,62.1,52.7,30.16,ENE,68,0.0,0.0,71,0.00,,,0.00,WUHU216HW,2013-10-09 23:48:00,
2013-10-09 18:53:00,61.6,52.1,30.16,ENE,68,0.0,0.0,71,0.00,,,0.00,WUHU216HW,2013-10-09 23:53:00,
2013-10-09 18:58:00,61.2,52.2,30.16,ENE,68,0.0,0.0,72,0.00,,,0.00,WUHU216HW,2013-10-09 23:58:00,
2013-10-09 19:03:00,60.8,52.2,30.16,ENE,68,0.0,0.0,73,0.00,,,0.00,WUHU216HW,2013-10-10 00:03:00,
2013-10-09 19:08:00,60.5,51.8,30.16,ENE,68,0.0,0.0,73,0.00,,,0.00,WUHU216HW,2013-10-10 00:08:00,
2013-10-09 19:13:00,60.1,51.5,30.16,ENE,68,0.0,0.0,73,0.00,,,0.00,WUHU216HW,2013-10-10 00:13:00,
2013-10-09 19:18:00,59.8,51.1,30.16,ENE,68,0.0,0.0,73,0.00,,,0.00,WUHU216HW,2013-10-10 00:18:00,
2013-10-09 19:23:00,59.6,51.3,30.16,ENE,68,0.0,0.0,74,0.00,,,0.00,WUHU216HW,2013-10-10 00:23:00,
2013-10-09 19:28:00,59.4,51.1,30.16,ENE,68,0.0,0.0,74,0.00,,,0.00,WUHU216HW,2013-10-10 00:28:00,
2013-10-09 19:33:00,59.0,51.1,30.16,ENE,68,0.0,0.0,75,0.00,,,0.00,WUHU216HW,2013-10-10 00:33:00,
2013-10-09 19:38:00,58.9,50.9,30.16,ENE,68,0.0,0.0,75,0.00,,,0.00,WUHU216HW,2013-10-10 00:38:00,
2013-10-09 19:43:00,58.5,50.6,30.16,ENE,68,0.0,0.0,75,0.00,,,0.00,WUHU216HW,2013-10-10 00:43:00,
2013-10-09 19:48:00,58.3,50.8,30.16,ENE,68,0.0,0.0,76,0.00,,,0.00,WUHU216HW,2013-10-10 00:48:00,
2013-10-09 19:53:00,58.1,50.6,30.16,ENE,68,0.0,0.0,76,0.00,,,0.00,WUHU216HW,2013-10-10 00:53:00,
2013-10-09 19:58:00,58.0,50.8,30.16,ENE,68,0.0,0.0,77,0.00,,,0.00,WUHU216HW,2013-10-10 00:58:00,
2013-10-09 20:03:00,57.6,50.4,30.16,ENE,68,0.0,0.0,77,0.00,,,0.00,WUHU216HW,2013-10-10 01:03:00,
2013-10-09 20:08:00,57.4,50.2,30.16,ENE,68,0.0,0.5,77,0.00,,,0.00,WUHU216HW,2013-10-10 01:08:00,
2013-10-09 20:13:00,57.1,50.2,30.16,ENE,68,0.0,0.5,78,0.00,,,0.00,WUHU216HW,2013-10-10 01:13:00,
2013-10-09 20:18:00,56.9,50.0,30.16,ENE,68,0.0,0.0,78,0.00,,,0.00,WUHU216HW,2013-10-10 01:18:00,
2013-10-09 20:23:00,56.5,49.7,30.16,ENE,68,0.0,0.0,78,0.00,,,0.00,WUHU216HW,2013-10-10 01:23:00,
2013-10-09 20:28:00,56.5,49.7,30.16,ENE,68,0.0,0.5,78,0.00,,,0.00,WUHU216HW,2013-10-10 01:28:00,
2013-10-09 20:33:00,56.2,49.7,30.17,ENE,68,0.0,0.5,79,0.00,,,0.00,WUHU216HW,2013-10-10 01:33:00,
2013-10-09 20:38:00,56.0,49.5,30.17,ENE,68,0.0,0.0,79,0.00,,,0.00,WUHU216HW,2013-10-10 01:38:00,
2013-10-09 20:43:00,56.0,49.5,30.17,ENE,68,0.0,0.0,79,0.00,,,0.00,WUHU216HW,2013-10-10 01:43:00,
2013-10-09 20:48:00,55.8,49.3,30.17,ENE,68,0.7,0.8,79,0.00,,,0.00,WUHU216HW,2013-10-10 01:48:00,
2013-10-09 20:53:00,55.6,49.5,30.16,ENE,68,0.0,0.8,80,0.00,,,0.00,WUHU216HW,2013-10-10 01:53:00,
2013-10-09 20:58:00,55.4,49.0,30.17,ENE,68,0.0,0.5,79,0.00,,,0.00,WUHU216HW,2013-10-10 01:58:00,
2013-10-09 21:03:00,55.3,48.8,30.17,ENE,68,0.0,0.0,79,0.00,,,0.00,WUHU216HW,2013-10-10 02:03:00,
2013-10-09 21:08:00,55.1,48.7,30.17,ENE,68,0.0,0.0,79,0.00,,,0.00,WUHU216HW,2013-10-10 02:08:00,
2013-10-09 21:13:00,55.1,49.0,30.17,ENE,68,0.6,1.1,80,0.00,,,0.00,WUHU216HW,2013-10-10 02:13:00,
2013-10-09 21:18:00,54.7,48.7,30.17,ENE,68,0.0,1.1,80,0.00,,,0.00,WUHU216HW,2013-10-10 02:18:00,
2013-10-09 21:23:00,54.7,48.7,30.17,ENE,68,0.0,0.2,80,0.00,,,0.00,WUHU216HW,2013-10-10 02:23:00,
2013-10-09 21:28:00,54.5,48.5,30.17,ENE,68,0.0,0.0,80,0.00,,,0.00,WUHU216HW,2013-10-10 02:28:00,
2013-10-09 21:33:00,54.4,48.3,30.17,ENE,68,0.0,0.0,80,0.00,,,0.00,WUHU216HW,2013-10-10 02:33:00,
2013-10-09 21:38:00,54.4,48.3,30.17,ENE,68,0.0,0.0,80,0.00,,,0.00,WUHU216HW,2013-10-10 02:38:00,
2013-10-09 21:43:00,54.2,48.2,30.17,ENE,68,0.0,0.0,80,0.00,,,0.00,WUHU216HW,2013-10-10 02:43:00,
2013-10-09 21:48:00,54.0,48.1,30.17,ENE,68,0.0,0.0,80,0.00,,,0.00,WUHU216HW,2013-10-10 02:48:00,
2013-10-09 21:53:00,54.0,48.3,30.17,ENE,68,0.0,0.0,81,0.00,,,0.00,WUHU216HW,2013-10-10 02:53:00,
2013-10-09 21:58:00,53.6,48.0,30.17,ENE,68,0.0,0.0,81,0.00,,,0.00,WUHU216HW,2013-10-10 02:58:00,
2013-10-09 22:03:00,53.6,48.0,30.17,ENE,68,0.0,0.0,81,0.00,,,0.00,WUHU216HW,2013-10-10 03:03:00,
2013-10-09 22:08:00,53.6,48.0,30.17,ENE,68,0.0,0.0,81,0.00,,,0.00,WUHU216HW,2013-10-10 03:08:00,
2013-10-09 22:13:00,53.5,47.8,30.17,ENE,68,0.0,0.0,81,0.00,,,0.00,WUHU216HW,2013-10-10 03:13:00,
2013-10-09 22:18:00,53.3,48.0,30.17,ENE,68,0.0,0.0,82,0.00,,,0.00,WUHU216HW,2013-10-10 03:18:00,
2013-10-09 22:23:00,53.3,48.0,30.17,ENE,68,0.0,0.0,82,0.00,,,0.00,WUHU216HW,2013-10-10 03:23:00,
2013-10-09 22:28:00,53.1,47.8,30.17,ENE,68,0.0,0.0,82,0.00,,,0.00,WUHU216HW,2013-10-10 03:28:00,
2013-10-09 22:33:00,52.9,47.6,30.17,ENE,68,0.0,0.0,82,0.00,,,0.00,WUHU216HW,2013-10-10 03:33:00,
2013-10-09 22:38:00,52.9,47.6,30.17,ENE,68,0.0,0.0,82,0.00,,,0.00,WUHU216HW,2013-10-10 03:38:00,
2013-10-09 22:43:00,52.9,47.6,30.17,ENE,68,0.0,0.0,82,0.00,,,0.00,WUHU216HW,2013-10-10 03:43:00,
2013-10-09 22:48:00,52.7,47.4,30.17,ENE,68,0.0,0.0,82,0.00,,,0.00,WUHU216HW,2013-10-10 03:48:00,
2013-10-09 22:53:00,52.6,47.3,30.17,ENE,68,0.0,0.0,82,0.00,,,0.00,WUHU216HW,2013-10-10 03:53:00,
2013-10-09 22:58:00,52.4,47.1,30.17,ENE,68,0.0,0.0,82,0.00,,,0.00,WUHU216HW,2013-10-10 03:58:00,
2013-10-09 23:01:00,52.4,47.1,30.17,ENE,68,0.0,0.0,82,0.00,,,0.00,WUHU216HW,2013-10-10 04:01:00,
2013-10-09 23:06:00,52.2,46.9,30.17,ENE,68,0.0,0.0,82,0.00,,,0.00,WUHU216HW,2013-10-10 04:06:00,
2013-10-09 23:11:00,52.2,46.9,30.17,ENE,68,0.0,0.0,82,0.00,,,0.00,WUHU216HW,2013-10-10 04:11:00,
2013-10-09 23:16:00,52.2,46.9,30.17,ENE,68,0.0,0.0,82,0.00,,,0.00,WUHU216HW,2013-10-10 04:16:00,
2013-10-09 23:21:00,51.8,46.5,30.17,ENE,68,0.0,0.0,82,0.00,,,0.00,WUHU216HW,2013-10-10 04:21:00,
2013-10-09 23:26:00,51.5,46.2,30.17,ENE,68,0.0,0.0,82,0.00,,,0.00,WUHU216HW,2013-10-10 04:26:00,
2013-10-09 23:31:00,51.5,46.2,30.17,ENE,68,0.0,0.0,82,0.00,,,0.00,WUHU216HW,2013-10-10 04:31:00,
2013-10-09 23:36:00,51.5,46.4,30.17,ENE,68,0.0,0.0,83,0.00,,,0.00,WUHU216HW,2013-10-10 04:36:00,
2013-10-09 23:41:00,51.3,46.3,30.17,ENE,68,0.0,0.0,83,0.00,,,0.00,WUHU216HW,2013-10-10 04:41:00,
2013-10-09 23:46:00,51.3,46.3,30.17,ENE,68,0.0,0.0,83,0.00,,,0.00,WUHU216HW,2013-10-10 04:46:00,
2013-10-09 23:51:00,51.1,46.1,30.16,ENE,68,0.0,0.0,83,0.00,,,0.00,WUHU216HW,2013-10-10 04:51:00,
2013-10-09 23:56:00,51.1,46.1,30.16,ENE,68,0.2,0.2,83,0.00,,,0.00,WUHU216HW,2013-10-10 04:56:00,